sensor_id;sensor_type;location;lat;lon;timestamp;temperature;humidity
2623;DHT22;1321;48.690;9.022;2022-09-09T00:02:19;21.60;98.50
2623;DHT22;1321;48.690;9.022;2022-09-09T00:04:55;21.60;96.10
2623;DHT22;1321;48.690;9.022;2022-09-09T00:07:36;21.40;97.00
2623;DHT22;1321;48.690;9.022;2022-09-09T00:10:28;21.50;95.60
2623;DHT22;1321;48.690;9.022;2022-09-09T00:13:02;21.50;95.20
2623;DHT22;1321;48.690;9.022;2022-09-09T00:15:40;21.50;95.20
2623;DHT22;1321;48.690;9.022;2022-09-09T00:18:17;21.50;95.60
2623;DHT22;1321;48.690;9.022;2022-09-09T00:20:54;21.50;95.70
2623;DHT22;1321;48.690;9.022;2022-09-09T00:23:25;21.40;95.20
2623;DHT22;1321;48.690;9.022;2022-09-09T00:26:02;21.40;95.90
2623;DHT22;1321;48.690;9.022;2022-09-09T00:28:38;21.50;96.20
2623;DHT22;1321;48.690;9.022;2022-09-09T00:31:13;21.50;98.00
2623;DHT22;1321;48.690;9.022;2022-09-09T00:33:42;21.50;98.40
2623;DHT22;1321;48.690;9.022;2022-09-09T00:36:13;21.50;98.50
2623;DHT22;1321;48.690;9.022;2022-09-09T00:38:46;21.50;98.90
2623;DHT22;1321;48.690;9.022;2022-09-09T00:41:20;21.50;99.10
2623;DHT22;1321;48.690;9.022;2022-09-09T00:43:56;21.40;99.00
2623;DHT22;1321;48.690;9.022;2022-09-09T00:46:47;21.40;99.00
2623;DHT22;1321;48.690;9.022;2022-09-09T00:49:27;21.30;98.30
2623;DHT22;1321;48.690;9.022;2022-09-09T00:52:08;21.30;99.70
2623;DHT22;1321;48.690;9.022;2022-09-09T00:54:47;21.30;99.20
2623;DHT22;1321;48.690;9.022;2022-09-09T00:57:26;21.30;99.60
2623;DHT22;1321;48.690;9.022;2022-09-09T01:00:19;21.30;97.80
2623;DHT22;1321;48.690;9.022;2022-09-09T01:03:21;21.30;99.00
2623;DHT22;1321;48.690;9.022;2022-09-09T01:05:58;21.40;99.80
2623;DHT22;1321;48.690;9.022;2022-09-09T01:08:42;21.30;99.90
2623;DHT22;1321;48.690;9.022;2022-09-09T01:11:20;21.30;99.70
2623;DHT22;1321;48.690;9.022;2022-09-09T01:13:53;21.30;99.90
2623;DHT22;1321;48.690;9.022;2022-09-09T01:16:26;21.30;99.60
2623;DHT22;1321;48.690;9.022;2022-09-09T01:18:58;21.20;97.40
2623;DHT22;1321;48.690;9.022;2022-09-09T01:21:37;21.10;97.80
2623;DHT22;1321;48.690;9.022;2022-09-09T01:24:20;21.20;97.00
2623;DHT22;1321;48.690;9.022;2022-09-09T01:26:55;21.20;97.60
2623;DHT22;1321;48.690;9.022;2022-09-09T01:29:24;21.20;98.50
2623;DHT22;1321;48.690;9.022;2022-09-09T01:31:54;21.20;98.00
2623;DHT22;1321;48.690;9.022;2022-09-09T01:34:24;21.20;97.30
2623;DHT22;1321;48.690;9.022;2022-09-09T01:36:57;21.30;97.30
2623;DHT22;1321;48.690;9.022;2022-09-09T01:39:26;21.30;97.40
2623;DHT22;1321;48.690;9.022;2022-09-09T01:41:56;21.30;98.40
2623;DHT22;1321;48.690;9.022;2022-09-09T01:44:24;21.30;98.30
2623;DHT22;1321;48.690;9.022;2022-09-09T01:46:53;21.40;98.00
2623;DHT22;1321;48.690;9.022;2022-09-09T01:49:21;21.40;99.20
2623;DHT22;1321;48.690;9.022;2022-09-09T01:51:52;21.30;97.80
2623;DHT22;1321;48.690;9.022;2022-09-09T01:54:24;21.30;98.30
2623;DHT22;1321;48.690;9.022;2022-09-09T01:57:04;21.30;99.20
2623;DHT22;1321;48.690;9.022;2022-09-09T02:00:00;21.20;98.40
2623;DHT22;1321;48.690;9.022;2022-09-09T02:02:32;21.20;97.80
2623;DHT22;1321;48.690;9.022;2022-09-09T02:05:07;21.20;97.90
2623;DHT22;1321;48.690;9.022;2022-09-09T02:07:41;21.20;97.70
2623;DHT22;1321;48.690;9.022;2022-09-09T02:10:12;21.20;97.70
2623;DHT22;1321;48.690;9.022;2022-09-09T02:12:47;21.20;97.30
2623;DHT22;1321;48.690;9.022;2022-09-09T02:15:20;21.20;97.40
2623;DHT22;1321;48.690;9.022;2022-09-09T02:17:50;21.20;98.80
2623;DHT22;1321;48.690;9.022;2022-09-09T02:20:20;21.20;97.80
2623;DHT22;1321;48.690;9.022;2022-09-09T02:22:50;21.20;99.10
2623;DHT22;1321;48.690;9.022;2022-09-09T02:25:22;21.10;98.70
2623;DHT22;1321;48.690;9.022;2022-09-09T02:27:52;21.10;98.40
2623;DHT22;1321;48.690;9.022;2022-09-09T02:30:20;21.10;99.60
2623;DHT22;1321;48.690;9.022;2022-09-09T02:32:52;21.10;98.20
2623;DHT22;1321;48.690;9.022;2022-09-09T02:35:24;21.10;98.00
2623;DHT22;1321;48.690;9.022;2022-09-09T02:37:55;21.10;97.30
2623;DHT22;1321;48.690;9.022;2022-09-09T02:40:26;21.10;98.20
2623;DHT22;1321;48.690;9.022;2022-09-09T02:42:55;21.10;99.00
2623;DHT22;1321;48.690;9.022;2022-09-09T02:45:25;21.10;99.20
2623;DHT22;1321;48.690;9.022;2022-09-09T02:48:03;21.00;98.00
2623;DHT22;1321;48.690;9.022;2022-09-09T02:50:33;21.00;98.10
2623;DHT22;1321;48.690;9.022;2022-09-09T02:53:07;21.00;97.20
2623;DHT22;1321;48.690;9.022;2022-09-09T02:55:39;20.90;96.50
2623;DHT22;1321;48.690;9.022;2022-09-09T02:58:13;20.90;96.80
2623;DHT22;1321;48.690;9.022;2022-09-09T03:00:45;20.90;97.20
2623;DHT22;1321;48.690;9.022;2022-09-09T03:03:15;20.90;96.20
2623;DHT22;1321;48.690;9.022;2022-09-09T03:05:44;20.70;96.80
2623;DHT22;1321;48.690;9.022;2022-09-09T03:08:12;20.70;96.80
2623;DHT22;1321;48.690;9.022;2022-09-09T03:10:40;20.70;97.40
2623;DHT22;1321;48.690;9.022;2022-09-09T03:13:10;20.70;96.30
2623;DHT22;1321;48.690;9.022;2022-09-09T03:15:38;20.60;98.30
2623;DHT22;1321;48.690;9.022;2022-09-09T03:18:07;20.60;97.90
2623;DHT22;1321;48.690;9.022;2022-09-09T03:20:35;20.60;98.20
2623;DHT22;1321;48.690;9.022;2022-09-09T03:23:03;20.50;97.40
2623;DHT22;1321;48.690;9.022;2022-09-09T03:25:31;20.50;99.20
2623;DHT22;1321;48.690;9.022;2022-09-09T03:28:00;20.60;99.90
2623;DHT22;1321;48.690;9.022;2022-09-09T03:30:30;20.60;97.80
2623;DHT22;1321;48.690;9.022;2022-09-09T03:32:58;20.60;99.70
2623;DHT22;1321;48.690;9.022;2022-09-09T03:35:26;20.70;99.90
2623;DHT22;1321;48.690;9.022;2022-09-09T03:37:54;20.70;99.90
2623;DHT22;1321;48.690;9.022;2022-09-09T03:40:22;20.80;99.90
2623;DHT22;1321;48.690;9.022;2022-09-09T03:42:58;20.70;99.90
2623;DHT22;1321;48.690;9.022;2022-09-09T03:45:26;20.70;99.90
2623;DHT22;1321;48.690;9.022;2022-09-09T03:47:55;20.70;99.90
2623;DHT22;1321;48.690;9.022;2022-09-09T03:50:23;20.70;99.40
2623;DHT22;1321;48.690;9.022;2022-09-09T03:52:51;20.70;99.90
2623;DHT22;1321;48.690;9.022;2022-09-09T03:55:19;20.70;99.90
2623;DHT22;1321;48.690;9.022;2022-09-09T03:57:48;20.70;99.90
2623;DHT22;1321;48.690;9.022;2022-09-09T04:00:17;20.70;99.90
2623;DHT22;1321;48.690;9.022;2022-09-09T04:02:45;20.60;99.90
2623;DHT22;1321;48.690;9.022;2022-09-09T04:05:14;20.50;99.90
2623;DHT22;1321;48.690;9.022;2022-09-09T04:07:42;20.40;99.10
2623;DHT22;1321;48.690;9.022;2022-09-09T04:10:10;20.40;99.90
2623;DHT22;1321;48.690;9.022;2022-09-09T04:12:38;20.50;99.90
2623;DHT22;1321;48.690;9.022;2022-09-09T04:15:07;20.50;99.20
2623;DHT22;1321;48.690;9.022;2022-09-09T04:17:37;20.40;98.60
2623;DHT22;1321;48.690;9.022;2022-09-09T04:20:05;20.40;99.90
2623;DHT22;1321;48.690;9.022;2022-09-09T04:22:38;20.30;98.20
2623;DHT22;1321;48.690;9.022;2022-09-09T04:25:07;20.10;98.00
2623;DHT22;1321;48.690;9.022;2022-09-09T04:27:35;20.00;98.70
2623;DHT22;1321;48.690;9.022;2022-09-09T04:30:03;20.20;99.90
2623;DHT22;1321;48.690;9.022;2022-09-09T04:32:32;20.20;99.90
2623;DHT22;1321;48.690;9.022;2022-09-09T04:35:02;20.20;99.90
2623;DHT22;1321;48.690;9.022;2022-09-09T04:37:30;20.30;99.90
2623;DHT22;1321;48.690;9.022;2022-09-09T04:39:58;20.30;99.90
2623;DHT22;1321;48.690;9.022;2022-09-09T04:42:28;20.30;99.90
2623;DHT22;1321;48.690;9.022;2022-09-09T04:44:56;20.40;99.90
2623;DHT22;1321;48.690;9.022;2022-09-09T04:47:25;20.40;99.90
2623;DHT22;1321;48.690;9.022;2022-09-09T04:49:53;20.40;99.90
2623;DHT22;1321;48.690;9.022;2022-09-09T04:52:22;20.40;99.90
2623;DHT22;1321;48.690;9.022;2022-09-09T04:54:51;20.40;99.90
2623;DHT22;1321;48.690;9.022;2022-09-09T04:57:20;20.40;99.90
2623;DHT22;1321;48.690;9.022;2022-09-09T04:59:48;20.30;99.90
2623;DHT22;1321;48.690;9.022;2022-09-09T05:02:16;20.30;99.90
2623;DHT22;1321;48.690;9.022;2022-09-09T05:04:45;20.40;99.90
2623;DHT22;1321;48.690;9.022;2022-09-09T05:07:13;20.40;99.90
2623;DHT22;1321;48.690;9.022;2022-09-09T05:09:42;20.40;99.90
2623;DHT22;1321;48.690;9.022;2022-09-09T05:12:12;20.20;99.90
2623;DHT22;1321;48.690;9.022;2022-09-09T05:14:40;20.00;99.90
2623;DHT22;1321;48.690;9.022;2022-09-09T05:17:08;20.10;99.90
2623;DHT22;1321;48.690;9.022;2022-09-09T05:19:36;20.20;99.90
2623;DHT22;1321;48.690;9.022;2022-09-09T05:22:05;20.20;99.90
2623;DHT22;1321;48.690;9.022;2022-09-09T05:24:34;20.30;99.90
2623;DHT22;1321;48.690;9.022;2022-09-09T05:27:05;20.40;99.90
2623;DHT22;1321;48.690;9.022;2022-09-09T05:29:33;20.60;99.90
2623;DHT22;1321;48.690;9.022;2022-09-09T05:32:02;20.60;99.90
2623;DHT22;1321;48.690;9.022;2022-09-09T05:34:31;20.50;99.90
2623;DHT22;1321;48.690;9.022;2022-09-09T05:37:00;20.40;99.90
2623;DHT22;1321;48.690;9.022;2022-09-09T05:39:29;20.40;99.90
2623;DHT22;1321;48.690;9.022;2022-09-09T05:42:00;20.20;99.90
2623;DHT22;1321;48.690;9.022;2022-09-09T05:44:29;20.30;99.90
2623;DHT22;1321;48.690;9.022;2022-09-09T05:46:58;20.40;99.90
2623;DHT22;1321;48.690;9.022;2022-09-09T05:49:26;20.40;99.90
2623;DHT22;1321;48.690;9.022;2022-09-09T05:51:56;20.40;99.90
2623;DHT22;1321;48.690;9.022;2022-09-09T05:54:26;20.50;99.90
2623;DHT22;1321;48.690;9.022;2022-09-09T05:56:56;20.50;99.90
2623;DHT22;1321;48.690;9.022;2022-09-09T05:59:27;20.50;99.90
2623;DHT22;1321;48.690;9.022;2022-09-09T06:01:58;20.60;99.90
2623;DHT22;1321;48.690;9.022;2022-09-09T06:04:28;20.40;99.90
2623;DHT22;1321;48.690;9.022;2022-09-09T06:06:57;20.20;99.90
2623;DHT22;1321;48.690;9.022;2022-09-09T06:09:27;20.20;99.90
2623;DHT22;1321;48.690;9.022;2022-09-09T06:11:58;20.20;99.90
2623;DHT22;1321;48.690;9.022;2022-09-09T06:14:27;20.20;99.90
2623;DHT22;1321;48.690;9.022;2022-09-09T06:16:57;20.30;99.90
2623;DHT22;1321;48.690;9.022;2022-09-09T06:19:25;20.20;99.90
2623;DHT22;1321;48.690;9.022;2022-09-09T06:21:53;20.20;99.90
2623;DHT22;1321;48.690;9.022;2022-09-09T06:24:23;20.20;99.90
2623;DHT22;1321;48.690;9.022;2022-09-09T06:26:52;20.30;99.90
2623;DHT22;1321;48.690;9.022;2022-09-09T06:29:21;20.40;99.90
2623;DHT22;1321;48.690;9.022;2022-09-09T06:31:49;20.50;99.90
2623;DHT22;1321;48.690;9.022;2022-09-09T06:34:19;20.40;99.90
2623;DHT22;1321;48.690;9.022;2022-09-09T06:36:47;20.50;99.90
2623;DHT22;1321;48.690;9.022;2022-09-09T06:39:16;20.60;99.90
2623;DHT22;1321;48.690;9.022;2022-09-09T06:41:44;20.60;99.90
2623;DHT22;1321;48.690;9.022;2022-09-09T06:44:12;20.70;99.90
2623;DHT22;1321;48.690;9.022;2022-09-09T06:46:42;20.80;99.90
2623;DHT22;1321;48.690;9.022;2022-09-09T06:49:11;20.90;99.90
2623;DHT22;1321;48.690;9.022;2022-09-09T06:51:41;20.90;99.90
2623;DHT22;1321;48.690;9.022;2022-09-09T06:54:11;20.90;99.90
2623;DHT22;1321;48.690;9.022;2022-09-09T06:56:41;20.90;99.90
2623;DHT22;1321;48.690;9.022;2022-09-09T06:59:10;21.00;99.90
2623;DHT22;1321;48.690;9.022;2022-09-09T07:01:40;21.00;99.90
2623;DHT22;1321;48.690;9.022;2022-09-09T07:04:11;21.10;99.90
2623;DHT22;1321;48.690;9.022;2022-09-09T07:06:42;21.10;99.90
2623;DHT22;1321;48.690;9.022;2022-09-09T07:09:13;21.10;99.90
2623;DHT22;1321;48.690;9.022;2022-09-09T07:11:43;21.10;99.90
2623;DHT22;1321;48.690;9.022;2022-09-09T07:14:13;21.10;99.90
2623;DHT22;1321;48.690;9.022;2022-09-09T07:16:41;21.10;99.90
2623;DHT22;1321;48.690;9.022;2022-09-09T07:19:10;21.10;99.90
2623;DHT22;1321;48.690;9.022;2022-09-09T07:21:38;21.10;99.90
2623;DHT22;1321;48.690;9.022;2022-09-09T07:24:11;21.20;99.90
2623;DHT22;1321;48.690;9.022;2022-09-09T07:26:40;21.00;99.90
2623;DHT22;1321;48.690;9.022;2022-09-09T07:29:09;21.00;99.90
2623;DHT22;1321;48.690;9.022;2022-09-09T07:31:46;21.20;99.90
2623;DHT22;1321;48.690;9.022;2022-09-09T07:34:15;21.20;99.90
2623;DHT22;1321;48.690;9.022;2022-09-09T07:36:43;21.20;99.90
2623;DHT22;1321;48.690;9.022;2022-09-09T07:39:14;21.20;99.90
2623;DHT22;1321;48.690;9.022;2022-09-09T07:41:45;21.20;99.90
2623;DHT22;1321;48.690;9.022;2022-09-09T07:44:16;21.20;99.90
2623;DHT22;1321;48.690;9.022;2022-09-09T07:46:45;21.30;99.90
2623;DHT22;1321;48.690;9.022;2022-09-09T07:49:14;21.30;99.90
2623;DHT22;1321;48.690;9.022;2022-09-09T07:51:44;21.40;99.90
2623;DHT22;1321;48.690;9.022;2022-09-09T07:54:15;21.50;99.90
2623;DHT22;1321;48.690;9.022;2022-09-09T07:56:44;21.70;99.90
2623;DHT22;1321;48.690;9.022;2022-09-09T07:59:13;21.80;99.90
2623;DHT22;1321;48.690;9.022;2022-09-09T08:01:44;21.90;99.90
2623;DHT22;1321;48.690;9.022;2022-09-09T08:04:14;22.00;99.90
2623;DHT22;1321;48.690;9.022;2022-09-09T08:06:45;22.10;99.90
2623;DHT22;1321;48.690;9.022;2022-09-09T08:09:15;22.00;99.90
2623;DHT22;1321;48.690;9.022;2022-09-09T08:11:44;22.10;99.90
2623;DHT22;1321;48.690;9.022;2022-09-09T08:14:13;22.20;99.90
2623;DHT22;1321;48.690;9.022;2022-09-09T08:16:44;22.30;99.90
2623;DHT22;1321;48.690;9.022;2022-09-09T08:19:13;22.40;99.90
2623;DHT22;1321;48.690;9.022;2022-09-09T08:21:43;22.40;99.90
2623;DHT22;1321;48.690;9.022;2022-09-09T08:24:12;22.50;99.90
2623;DHT22;1321;48.690;9.022;2022-09-09T08:26:43;22.50;99.90
2623;DHT22;1321;48.690;9.022;2022-09-09T08:29:13;22.30;99.90
2623;DHT22;1321;48.690;9.022;2022-09-09T08:34:10;22.30;99.90
2623;DHT22;1321;48.690;9.022;2022-09-09T08:36:41;22.50;99.90
2623;DHT22;1321;48.690;9.022;2022-09-09T08:39:11;22.50;99.90
2623;DHT22;1321;48.690;9.022;2022-09-09T08:42:11;22.40;99.90
2623;DHT22;1321;48.690;9.022;2022-09-09T08:44:51;22.40;99.90
2623;DHT22;1321;48.690;9.022;2022-09-09T08:47:28;22.50;99.90
2623;DHT22;1321;48.690;9.022;2022-09-09T08:50:13;22.60;99.90
2623;DHT22;1321;48.690;9.022;2022-09-09T08:52:50;22.60;99.90
2623;DHT22;1321;48.690;9.022;2022-09-09T08:55:26;22.40;99.90
2623;DHT22;1321;48.690;9.022;2022-09-09T08:58:08;22.10;99.90
2623;DHT22;1321;48.690;9.022;2022-09-09T09:00:43;22.10;99.90
2623;DHT22;1321;48.690;9.022;2022-09-09T09:03:18;22.10;99.90
2623;DHT22;1321;48.690;9.022;2022-09-09T09:05:56;22.30;99.90
2623;DHT22;1321;48.690;9.022;2022-09-09T09:08:33;22.00;99.90
2623;DHT22;1321;48.690;9.022;2022-09-09T09:11:05;21.90;99.90
2623;DHT22;1321;48.690;9.022;2022-09-09T09:13:40;21.70;99.90
2623;DHT22;1321;48.690;9.022;2022-09-09T09:16:19;21.60;99.90
2623;DHT22;1321;48.690;9.022;2022-09-09T09:18:49;21.40;99.90
2623;DHT22;1321;48.690;9.022;2022-09-09T09:21:24;21.10;99.90
2623;DHT22;1321;48.690;9.022;2022-09-09T09:23:57;21.00;99.90
2623;DHT22;1321;48.690;9.022;2022-09-09T09:26:29;21.20;99.90
2623;DHT22;1321;48.690;9.022;2022-09-09T09:29:03;21.40;99.90
2623;DHT22;1321;48.690;9.022;2022-09-09T09:31:38;21.30;99.90
2623;DHT22;1321;48.690;9.022;2022-09-09T09:34:08;21.50;99.90
2623;DHT22;1321;48.690;9.022;2022-09-09T09:36:41;21.70;99.90
2623;DHT22;1321;48.690;9.022;2022-09-09T09:39:22;21.90;99.90
2623;DHT22;1321;48.690;9.022;2022-09-09T09:42:13;21.90;99.90
2623;DHT22;1321;48.690;9.022;2022-09-09T09:44:48;22.10;99.90
2623;DHT22;1321;48.690;9.022;2022-09-09T09:47:18;22.20;99.90
2623;DHT22;1321;48.690;9.022;2022-09-09T09:49:53;22.30;99.90
2623;DHT22;1321;48.690;9.022;2022-09-09T09:52:23;22.40;99.90
2623;DHT22;1321;48.690;9.022;2022-09-09T09:54:53;22.60;99.90
2623;DHT22;1321;48.690;9.022;2022-09-09T09:57:25;22.60;99.90
2623;DHT22;1321;48.690;9.022;2022-09-09T10:00:13;22.60;99.90
2623;DHT22;1321;48.690;9.022;2022-09-09T10:02:45;22.60;99.90
2623;DHT22;1321;48.690;9.022;2022-09-09T10:05:17;22.80;99.90
2623;DHT22;1321;48.690;9.022;2022-09-09T10:08:04;22.80;99.90
2623;DHT22;1321;48.690;9.022;2022-09-09T10:10:45;22.90;99.90
2623;DHT22;1321;48.690;9.022;2022-09-09T10:13:22;23.00;99.90
2623;DHT22;1321;48.690;9.022;2022-09-09T10:16:04;23.00;99.90
2623;DHT22;1321;48.690;9.022;2022-09-09T10:18:42;23.00;99.90
2623;DHT22;1321;48.690;9.022;2022-09-09T10:21:24;23.00;99.90
2623;DHT22;1321;48.690;9.022;2022-09-09T10:24:20;23.20;99.90
2623;DHT22;1321;48.690;9.022;2022-09-09T10:26:55;23.20;99.90
2623;DHT22;1321;48.690;9.022;2022-09-09T10:29:37;23.30;99.90
2623;DHT22;1321;48.690;9.022;2022-09-09T10:32:37;23.10;99.90
2623;DHT22;1321;48.690;9.022;2022-09-09T10:35:14;23.10;99.90
2623;DHT22;1321;48.690;9.022;2022-09-09T10:38:15;23.10;99.90
2623;DHT22;1321;48.690;9.022;2022-09-09T10:41:09;23.10;99.90
2623;DHT22;1321;48.690;9.022;2022-09-09T10:46:44;23.30;99.90
2623;DHT22;1321;48.690;9.022;2022-09-09T10:49:28;23.30;99.90
2623;DHT22;1321;48.690;9.022;2022-09-09T10:52:09;23.40;99.90
2623;DHT22;1321;48.690;9.022;2022-09-09T10:54:53;23.50;99.90
2623;DHT22;1321;48.690;9.022;2022-09-09T10:57:29;23.60;99.90
2623;DHT22;1321;48.690;9.022;2022-09-09T11:00:03;23.60;99.90
2623;DHT22;1321;48.690;9.022;2022-09-09T11:02:34;23.70;99.90
2623;DHT22;1321;48.690;9.022;2022-09-09T11:05:10;23.80;99.90
2623;DHT22;1321;48.690;9.022;2022-09-09T11:07:47;23.80;99.90
2623;DHT22;1321;48.690;9.022;2022-09-09T11:10:23;23.70;99.90
2623;DHT22;1321;48.690;9.022;2022-09-09T11:12:57;23.70;99.90
2623;DHT22;1321;48.690;9.022;2022-09-09T11:15:31;23.50;99.90
2623;DHT22;1321;48.690;9.022;2022-09-09T11:18:04;23.40;99.90
2623;DHT22;1321;48.690;9.022;2022-09-09T11:20:34;23.30;99.90
2623;DHT22;1321;48.690;9.022;2022-09-09T11:23:08;23.10;99.90
2623;DHT22;1321;48.690;9.022;2022-09-09T11:25:40;22.90;99.90
2623;DHT22;1321;48.690;9.022;2022-09-09T11:28:31;22.70;99.90
2623;DHT22;1321;48.690;9.022;2022-09-09T11:31:12;22.80;99.90
2623;DHT22;1321;48.690;9.022;2022-09-09T11:34:07;22.80;99.90
2623;DHT22;1321;48.690;9.022;2022-09-09T11:36:53;22.80;99.90
2623;DHT22;1321;48.690;9.022;2022-09-09T11:39:44;22.20;99.90
2623;DHT22;1321;48.690;9.022;2022-09-09T11:42:17;22.70;99.90
2623;DHT22;1321;48.690;9.022;2022-09-09T11:44:46;22.60;99.90
2623;DHT22;1321;48.690;9.022;2022-09-09T11:47:22;22.60;99.90
2623;DHT22;1321;48.690;9.022;2022-09-09T11:49:51;22.70;99.90
2623;DHT22;1321;48.690;9.022;2022-09-09T11:52:24;22.80;99.90
2623;DHT22;1321;48.690;9.022;2022-09-09T11:54:55;22.80;99.90
2623;DHT22;1321;48.690;9.022;2022-09-09T11:57:26;22.90;99.90
2623;DHT22;1321;48.690;9.022;2022-09-09T11:59:58;22.90;99.90
2623;DHT22;1321;48.690;9.022;2022-09-09T12:02:28;22.70;99.90
2623;DHT22;1321;48.690;9.022;2022-09-09T12:05:00;22.70;99.90
2623;DHT22;1321;48.690;9.022;2022-09-09T12:07:36;22.70;99.90
2623;DHT22;1321;48.690;9.022;2022-09-09T12:10:20;22.60;99.90
2623;DHT22;1321;48.690;9.022;2022-09-09T12:12:50;22.60;99.90
2623;DHT22;1321;48.690;9.022;2022-09-09T12:15:22;22.70;99.90
2623;DHT22;1321;48.690;9.022;2022-09-09T12:17:56;22.80;99.90
2623;DHT22;1321;48.690;9.022;2022-09-09T12:20:34;22.90;99.90
2623;DHT22;1321;48.690;9.022;2022-09-09T12:26:12;23.00;99.90
2623;DHT22;1321;48.690;9.022;2022-09-09T12:28:54;23.00;99.90
2623;DHT22;1321;48.690;9.022;2022-09-09T12:31:28;23.10;99.90
2623;DHT22;1321;48.690;9.022;2022-09-09T12:34:09;23.00;99.90
2623;DHT22;1321;48.690;9.022;2022-09-09T12:36:39;23.10;99.90
2623;DHT22;1321;48.690;9.022;2022-09-09T12:39:28;23.20;99.90
2623;DHT22;1321;48.690;9.022;2022-09-09T12:41:58;23.20;99.90
2623;DHT22;1321;48.690;9.022;2022-09-09T12:44:26;23.10;99.90
2623;DHT22;1321;48.690;9.022;2022-09-09T12:46:58;22.90;99.90
2623;DHT22;1321;48.690;9.022;2022-09-09T12:49:32;22.90;99.90
2623;DHT22;1321;48.690;9.022;2022-09-09T12:52:03;22.90;99.90
2623;DHT22;1321;48.690;9.022;2022-09-09T12:54:35;22.70;99.90
2623;DHT22;1321;48.690;9.022;2022-09-09T12:57:04;22.70;99.90
2623;DHT22;1321;48.690;9.022;2022-09-09T12:59:37;22.50;99.90
2623;DHT22;1321;48.690;9.022;2022-09-09T13:02:19;22.40;99.90
2623;DHT22;1321;48.690;9.022;2022-09-09T13:04:48;22.50;99.90
2623;DHT22;1321;48.690;9.022;2022-09-09T13:07:18;22.70;99.90
2623;DHT22;1321;48.690;9.022;2022-09-09T13:09:48;22.70;99.90
2623;DHT22;1321;48.690;9.022;2022-09-09T13:12:19;22.70;99.90
2623;DHT22;1321;48.690;9.022;2022-09-09T13:14:51;22.90;99.90
2623;DHT22;1321;48.690;9.022;2022-09-09T13:17:23;23.10;99.90
2623;DHT22;1321;48.690;9.022;2022-09-09T13:19:52;23.20;99.90
2623;DHT22;1321;48.690;9.022;2022-09-09T13:22:29;23.30;98.80
2623;DHT22;1321;48.690;9.022;2022-09-09T13:25:05;23.30;99.40
2623;DHT22;1321;48.690;9.022;2022-09-09T13:27:50;23.30;98.80
2623;DHT22;1321;48.690;9.022;2022-09-09T13:30:22;23.50;99.90
2623;DHT22;1321;48.690;9.022;2022-09-09T13:33:02;23.60;99.90
2623;DHT22;1321;48.690;9.022;2022-09-09T13:35:32;23.30;98.10
2623;DHT22;1321;48.690;9.022;2022-09-09T13:38:07;23.20;98.00
2623;DHT22;1321;48.690;9.022;2022-09-09T13:40:37;23.30;97.70
2623;DHT22;1321;48.690;9.022;2022-09-09T13:43:18;23.40;99.00
2623;DHT22;1321;48.690;9.022;2022-09-09T13:45:54;23.40;95.70
2623;DHT22;1321;48.690;9.022;2022-09-09T13:48:23;23.40;97.00
2623;DHT22;1321;48.690;9.022;2022-09-09T13:51:00;23.30;95.20
2623;DHT22;1321;48.690;9.022;2022-09-09T13:53:29;23.00;92.60
2623;DHT22;1321;48.690;9.022;2022-09-09T13:55:59;23.10;94.90
2623;DHT22;1321;48.690;9.022;2022-09-09T13:58:28;23.20;93.50
2623;DHT22;1321;48.690;9.022;2022-09-09T14:00:56;23.30;93.20
2623;DHT22;1321;48.690;9.022;2022-09-09T14:03:25;23.10;92.30
2623;DHT22;1321;48.690;9.022;2022-09-09T14:05:53;23.20;92.80
2623;DHT22;1321;48.690;9.022;2022-09-09T14:08:25;23.20;93.40
2623;DHT22;1321;48.690;9.022;2022-09-09T14:10:55;23.30;92.50
2623;DHT22;1321;48.690;9.022;2022-09-09T14:13:25;23.40;92.50
2623;DHT22;1321;48.690;9.022;2022-09-09T14:15:53;23.40;92.60
2623;DHT22;1321;48.690;9.022;2022-09-09T14:18:22;23.40;91.20
2623;DHT22;1321;48.690;9.022;2022-09-09T14:20:52;23.90;90.90
2623;DHT22;1321;48.690;9.022;2022-09-09T14:23:20;23.60;91.70
2623;DHT22;1321;48.690;9.022;2022-09-09T14:25:49;23.60;91.30
2623;DHT22;1321;48.690;9.022;2022-09-09T14:28:18;23.60;89.70
2623;DHT22;1321;48.690;9.022;2022-09-09T14:31:10;23.40;89.50
2623;DHT22;1321;48.690;9.022;2022-09-09T14:33:41;23.50;87.90
2623;DHT22;1321;48.690;9.022;2022-09-09T14:36:09;23.50;84.50
2623;DHT22;1321;48.690;9.022;2022-09-09T14:38:39;23.20;78.40
2623;DHT22;1321;48.690;9.022;2022-09-09T14:41:09;23.10;78.80
2623;DHT22;1321;48.690;9.022;2022-09-09T14:43:38;23.00;77.70
2623;DHT22;1321;48.690;9.022;2022-09-09T14:46:09;23.00;78.20
2623;DHT22;1321;48.690;9.022;2022-09-09T14:48:38;22.90;77.20
2623;DHT22;1321;48.690;9.022;2022-09-09T14:51:08;23.00;79.30
2623;DHT22;1321;48.690;9.022;2022-09-09T14:53:36;23.00;78.30
2623;DHT22;1321;48.690;9.022;2022-09-09T14:56:06;23.10;80.90
2623;DHT22;1321;48.690;9.022;2022-09-09T14:58:35;23.40;81.10
2623;DHT22;1321;48.690;9.022;2022-09-09T15:01:05;23.30;81.20
2623;DHT22;1321;48.690;9.022;2022-09-09T15:03:35;23.30;79.60
2623;DHT22;1321;48.690;9.022;2022-09-09T15:06:08;23.00;76.60
2623;DHT22;1321;48.690;9.022;2022-09-09T15:08:37;22.90;75.50
2623;DHT22;1321;48.690;9.022;2022-09-09T15:11:10;23.00;78.20
2623;DHT22;1321;48.690;9.022;2022-09-09T15:13:40;23.20;80.40
2623;DHT22;1321;48.690;9.022;2022-09-09T15:16:10;23.30;82.70
2623;DHT22;1321;48.690;9.022;2022-09-09T15:18:41;23.40;84.40
2623;DHT22;1321;48.690;9.022;2022-09-09T15:21:09;23.50;86.60
2623;DHT22;1321;48.690;9.022;2022-09-09T15:23:38;23.60;89.40
2623;DHT22;1321;48.690;9.022;2022-09-09T15:26:06;23.70;90.70
2623;DHT22;1321;48.690;9.022;2022-09-09T15:28:37;23.50;83.70
2623;DHT22;1321;48.690;9.022;2022-09-09T15:31:07;23.50;83.50
2623;DHT22;1321;48.690;9.022;2022-09-09T15:33:37;23.60;82.40
2623;DHT22;1321;48.690;9.022;2022-09-09T15:36:17;23.50;77.80
2623;DHT22;1321;48.690;9.022;2022-09-09T15:38:46;23.50;74.60
2623;DHT22;1321;48.690;9.022;2022-09-09T15:41:15;23.50;78.80
2623;DHT22;1321;48.690;9.022;2022-09-09T15:43:45;23.40;74.40
2623;DHT22;1321;48.690;9.022;2022-09-09T15:46:32;23.40;74.10
2623;DHT22;1321;48.690;9.022;2022-09-09T15:49:05;23.40;75.30
2623;DHT22;1321;48.690;9.022;2022-09-09T15:51:35;23.50;76.70
2623;DHT22;1321;48.690;9.022;2022-09-09T15:54:10;23.50;75.90
2623;DHT22;1321;48.690;9.022;2022-09-09T15:56:40;23.40;75.10
2623;DHT22;1321;48.690;9.022;2022-09-09T15:59:09;23.30;75.80
2623;DHT22;1321;48.690;9.022;2022-09-09T16:01:38;23.40;76.40
2623;DHT22;1321;48.690;9.022;2022-09-09T16:04:08;23.50;77.80
2623;DHT22;1321;48.690;9.022;2022-09-09T16:06:38;23.50;79.10
2623;DHT22;1321;48.690;9.022;2022-09-09T16:09:07;23.50;77.20
2623;DHT22;1321;48.690;9.022;2022-09-09T16:11:38;23.40;76.30
2623;DHT22;1321;48.690;9.022;2022-09-09T16:14:06;23.40;77.50
2623;DHT22;1321;48.690;9.022;2022-09-09T16:16:35;23.30;76.10
2623;DHT22;1321;48.690;9.022;2022-09-09T16:19:05;23.30;78.50
2623;DHT22;1321;48.690;9.022;2022-09-09T16:21:39;23.50;78.10
2623;DHT22;1321;48.690;9.022;2022-09-09T16:24:10;23.60;81.50
2623;DHT22;1321;48.690;9.022;2022-09-09T16:26:41;23.60;78.60
2623;DHT22;1321;48.690;9.022;2022-09-09T16:29:12;23.50;78.20
2623;DHT22;1321;48.690;9.022;2022-09-09T16:31:42;23.60;81.30
2623;DHT22;1321;48.690;9.022;2022-09-09T16:34:10;23.60;82.20
2623;DHT22;1321;48.690;9.022;2022-09-09T16:36:42;23.60;85.10
2623;DHT22;1321;48.690;9.022;2022-09-09T16:39:11;23.60;86.20
2623;DHT22;1321;48.690;9.022;2022-09-09T16:41:41;23.50;87.10
2623;DHT22;1321;48.690;9.022;2022-09-09T16:44:12;23.50;85.90
2623;DHT22;1321;48.690;9.022;2022-09-09T16:46:42;23.50;84.70